Time;durP1;ratioP1;P1;durP2;ratioP2;P2;SDS_P1;SDS_P2;PMS_P1;PMS_P2;Temp;Humidity;BMP_temperature;BMP_pressure;BME280_temperature;BME280_humidity;BME280_pressure;Samples;Min_cycle;Max_cycle;Signal;HPM_P1;HPM_P2
2023/07/30 00:00:53;;;;;;;10.00;2.90;;;17.50;99.90;;;;;;4966532;28;20759;-86
2023/07/30 00:03:19;;;;;;;8.40;3.20;;;17.50;99.90;;;;;;4970400;28;20207;-85
2023/07/30 00:05:54;;;;;;;6.90;2.90;;;17.40;99.90;;;;;;4976540;28;20195;-87
2023/07/30 00:08:20;;;;;;;5.40;3.10;;;17.40;99.90;;;;;;4967559;28;20305;-87
2023/07/30 00:10:46;;;;;;;5.70;2.47;;;17.40;99.90;;;;;;4969462;28;21113;-86
2023/07/30 00:13:11;;;;;;;7.83;3.10;;;17.30;99.90;;;;;;4960738;28;20278;-86
2023/07/30 00:15:37;;;;;;;4.07;2.53;;;17.30;17.70;;;;;;4959683;28;20571;-86
2023/07/30 00:18:02;;;;;;;7.20;2.80;;;17.30;1.00;;;;;;4959122;28;20561;-85
2023/07/30 00:20:28;;;;;;;9.00;3.33;;;17.30;1.00;;;;;;4960293;28;20196;-87
2023/07/30 00:22:53;;;;;;;6.60;2.83;;;17.20;1.00;;;;;;4960832;28;20198;-86
2023/07/30 00:25:19;;;;;;;6.10;2.70;;;17.30;1.00;;;;;;4963783;28;20246;-87
2023/07/30 00:27:44;;;;;;;4.90;2.80;;;17.20;1.00;;;;;;4960431;28;20208;-86
2023/07/30 00:30:13;;;;;;;9.50;4.03;;;17.20;1.00;;;;;;4963189;28;20289;-87
2023/07/30 00:32:43;;;;;;;7.80;2.97;;;17.20;1.00;;;;;;4959052;28;20215;-87
2023/07/30 00:35:09;;;;;;;5.67;2.70;;;17.20;1.00;;;;;;4960970;28;20428;-86
2023/07/30 00:37:34;;;;;;;9.67;3.40;;;17.20;1.00;;;;;;4965654;28;20458;-85
2023/07/30 00:40:00;;;;;;;4.27;2.17;;;17.20;1.00;;;;;;4967968;28;20462;-86
2023/07/30 00:42:28;;;;;;;8.07;3.00;;;17.20;1.00;;;;;;4981438;28;22733;-86
2023/07/30 00:44:56;;;;;;;4.03;2.93;;;17.30;1.00;;;;;;4967592;28;20185;-86
2023/07/30 00:47:22;;;;;;;13.37;3.57;;;17.30;1.00;;;;;;4960428;28;20459;-86
2023/07/30 00:49:48;;;;;;;3.57;2.50;;;17.40;1.00;;;;;;4967303;28;20482;-86
2023/07/30 00:52:16;;;;;;;9.27;3.17;;;17.40;99.90;;;;;;4964510;28;20854;-86
2023/07/30 00:54:42;;;;;;;12.40;2.87;;;17.30;99.90;;;;;;4967854;28;20459;-86
2023/07/30 00:57:09;;;;;;;3.73;2.70;;;17.30;99.90;;;;;;4964392;28;20460;-86
2023/07/30 00:59:35;;;;;;;4.10;2.77;;;17.30;1.00;;;;;;4999459;28;20192;-87
2023/07/30 01:02:02;;;;;;;4.33;2.67;;;17.30;99.90;;;;;;4996656;28;20461;-87
2023/07/30 01:04:28;;;;;;;7.10;2.87;;;17.40;1.00;;;;;;4975269;28;20235;-86
2023/07/30 01:06:54;;;;;;;6.13;2.60;;;17.40;1.00;;;;;;4962457;28;20462;-87
2023/07/30 01:09:19;;;;;;;7.10;2.83;;;17.40;1.00;;;;;;4962955;28;20207;-86
2023/07/30 01:11:45;;;;;;;6.23;2.60;;;17.50;99.90;;;;;;4979618;28;20186;-86
2023/07/30 01:14:16;;;;;;;8.33;3.80;;;17.50;99.90;;;;;;4967549;28;20248;-86
2023/07/30 01:16:42;;;;;;;4.87;2.50;;;17.50;99.90;;;;;;4965776;28;21082;-86
2023/07/30 01:19:07;;;;;;;13.63;4.07;;;17.60;99.90;;;;;;4963793;28;20624;-86
2023/07/30 01:21:36;;;;;;;4.97;2.63;;;17.60;99.90;;;;;;4965987;28;20534;-87
2023/07/30 01:24:07;;;;;;;9.53;4.00;;;17.60;99.90;;;;;;4967467;28;20192;-87
2023/07/30 01:26:46;;;;;;;6.77;3.30;;;17.60;99.90;;;;;;4963337;28;20494;-86
2023/07/30 01:29:42;;;;;;;9.97;3.10;;;17.60;99.90;;;;;;4999107;28;20474;-85
2023/07/30 01:32:11;;;;;;;10.57;4.10;;;17.60;16.40;;;;;;4961751;28;20447;-85
2023/07/30 01:34:39;;;;;;;6.43;3.30;;;17.60;1.00;;;;;;4960789;28;20496;-86
2023/07/30 01:37:11;;;;;;;5.73;3.50;;;17.60;1.00;;;;;;4965633;28;20458;-86
2023/07/30 01:39:40;;;;;;;9.27;3.23;;;17.50;7.60;;;;;;4956196;28;20436;-86
2023/07/30 01:42:06;;;;;;;4.80;2.73;;;17.50;99.90;;;;;;4974685;28;20446;-86
2023/07/30 01:44:31;;;;;;;10.10;3.23;;;17.50;99.90;;;;;;4967250;28;20795;-86
2023/07/30 01:46:57;;;;;;;7.77;3.20;;;17.50;99.90;;;;;;4989428;28;20212;-86
2023/07/30 01:49:22;;;;;;;9.43;3.00;;;17.50;99.90;;;;;;4991005;28;20196;-87
2023/07/30 01:51:48;;;;;;;8.60;3.57;;;17.50;99.90;;;;;;4956688;28;20199;-85
2023/07/30 01:54:14;;;;;;;6.80;3.20;;;17.50;99.90;;;;;;4960967;28;20577;-86
2023/07/30 01:56:39;;;;;;;5.53;3.10;;;17.50;99.90;;;;;;4958307;28;20472;-86
2023/07/30 01:59:05;;;;;;;6.30;3.33;;;17.50;99.90;;;;;;4960108;28;20211;-86
2023/07/30 02:02:06;;;;;;;9.17;3.37;;;17.40;99.90;;;;;;4980331;28;20191;-87
2023/07/30 02:04:35;;;;;;;7.40;3.47;;;17.40;99.90;;;;;;4977037;28;20254;-85
2023/07/30 02:07:01;;;;;;;6.00;3.17;;;17.40;99.90;;;;;;4961545;28;20470;-84
2023/07/30 02:09:31;;;;;;;7.20;3.20;;;17.40;99.90;;;;;;4954538;28;20479;-85
2023/07/30 02:11:57;;;;;;;8.40;3.53;;;17.40;1.00;;;;;;4956946;28;20200;-85
2023/07/30 02:14:25;;;;;;;8.50;2.90;;;17.40;99.90;;;;;;4957025;28;20816;-85
2023/07/30 02:16:53;;;;;;;8.47;3.27;;;17.30;99.90;;;;;;4957729;28;20234;-85
2023/07/30 02:19:21;;;;;;;7.00;3.23;;;17.30;99.90;;;;;;4953357;28;20554;-84
2023/07/30 02:21:47;;;;;;;7.80;3.67;;;17.30;1.00;;;;;;4955700;28;20952;-85
2023/07/30 02:24:12;;;;;;;10.33;3.17;;;17.30;1.00;;;;;;4958149;28;20447;-84
2023/07/30 02:26:38;;;;;;;8.60;3.20;;;17.20;1.00;;;;;;4957453;28;20225;-85
2023/07/30 02:29:04;;;;;;;11.70;3.90;;;17.20;1.00;;;;;;4957144;28;20209;-84
2023/07/30 02:31:30;;;;;;;7.57;3.10;;;17.20;1.00;;;;;;4960629;28;20453;-85
2023/07/30 02:33:56;;;;;;;10.97;3.60;;;17.10;1.00;;;;;;4957468;28;20223;-84
2023/07/30 02:36:21;;;;;;;8.43;3.70;;;17.10;1.00;;;;;;4958806;28;20469;-84
2023/07/30 02:38:47;;;;;;;6.67;3.43;;;17.10;1.00;;;;;;4962530;28;20575;-85
2023/07/30 02:41:18;;;;;;;11.70;3.80;;;17.00;1.00;;;;;;4964670;28;20193;-85
2023/07/30 02:43:44;;;;;;;8.00;3.20;;;17.00;1.00;;;;;;4955349;28;20574;-85
2023/07/30 02:46:10;;;;;;;7.83;3.33;;;17.00;1.00;;;;;;4958146;28;20447;-85
2023/07/30 02:48:35;;;;;;;8.00;3.60;;;17.00;1.00;;;;;;4961898;28;20414;-85
2023/07/30 02:51:01;;;;;;;6.00;3.17;;;17.00;1.00;;;;;;4996478;28;20251;-84
2023/07/30 02:53:27;;;;;;;9.53;3.07;;;17.00;69.10;;;;;;4987718;28;20191;-85
2023/07/30 02:55:53;;;;;;;11.70;3.90;;;17.00;1.00;;;;;;4960336;28;20188;-85
2023/07/30 02:58:20;;;;;;;16.27;4.00;;;17.00;99.90;;;;;;4968517;28;20458;-85
2023/07/30 03:00:46;;;;;;;5.93;2.83;;;17.00;99.90;;;;;;4964528;28;20247;-85
2023/07/30 03:03:14;;;;;;;31.53;4.60;;;17.00;99.90;;;;;;4974736;28;20443;-85
2023/07/30 03:05:43;;;;;;;11.03;2.93;;;17.00;1.00;;;;;;4989644;28;20310;-84
2023/07/30 03:08:09;;;;;;;4.40;2.27;;;17.00;99.90;;;;;;4962707;28;20473;-85
2023/07/30 03:10:37;;;;;;;11.83;2.97;;;17.10;99.90;;;;;;4962241;28;20471;-85
2023/07/30 03:13:05;;;;;;;6.53;2.57;;;17.10;99.90;;;;;;4962676;28;20196;-85
2023/07/30 03:15:33;;;;;;;8.20;2.90;;;17.10;99.90;;;;;;4965029;28;20479;-84
2023/07/30 03:17:59;;;;;;;6.53;2.67;;;17.10;99.90;;;;;;4967428;28;20506;-85
2023/07/30 03:20:24;;;;;;;7.00;2.80;;;17.10;99.90;;;;;;4962765;28;20473;-85
2023/07/30 03:22:50;;;;;;;5.80;2.20;;;17.10;99.90;;;;;;4976654;28;20197;-85
2023/07/30 03:25:16;;;;;;;14.83;3.00;;;17.20;99.90;;;;;;4961598;28;20210;-85
2023/07/30 03:27:44;;;;;;;11.30;3.40;;;17.20;99.90;;;;;;4965398;28;20816;-85
2023/07/30 03:30:12;;;;;;;9.93;3.40;;;17.20;99.90;;;;;;4963612;28;20215;-85
2023/07/30 03:32:38;;;;;;;9.07;2.90;;;17.10;99.90;;;;;;4961621;28;20948;-85
2023/07/30 03:35:04;;;;;;;6.30;2.60;;;17.10;1.00;;;;;;4962116;28;20447;-84
2023/07/30 03:37:29;;;;;;;8.93;2.87;;;17.00;99.90;;;;;;4965303;28;20302;-85
2023/07/30 03:39:55;;;;;;;9.40;2.50;;;16.90;99.90;;;;;;4970288;28;21020;-84
2023/07/30 03:42:21;;;;;;;7.33;2.90;;;16.80;71.50;;;;;;4990675;28;20270;-85
2023/07/30 03:44:46;;;;;;;5.30;2.50;;;16.70;99.90;;;;;;4963884;28;20242;-85
2023/07/30 03:47:14;;;;;;;5.50;2.47;;;16.60;1.00;;;;;;4956343;28;20773;-85
2023/07/30 03:49:40;;;;;;;10.60;3.80;;;16.50;99.90;;;;;;4963456;28;20219;-85
2023/07/30 03:52:09;;;;;;;9.40;3.00;;;16.40;1.00;;;;;;4959999;28;20455;-84
2023/07/30 03:54:35;;;;;;;9.47;2.87;;;16.30;1.00;;;;;;4967393;28;20258;-85
2023/07/30 03:57:01;;;;;;;5.90;2.63;;;16.30;1.00;;;;;;4963948;28;20467;-85
2023/07/30 03:59:29;;;;;;;5.27;2.50;;;16.30;1.00;;;;;;4960727;28;20183;-85
2023/07/30 04:01:55;;;;;;;12.80;4.93;;;16.30;1.00;;;;;;4959401;28;20218;-85
2023/07/30 04:04:20;;;;;;;9.30;2.53;;;16.30;99.90;;;;;;4957045;28;20442;-85
2023/07/30 04:06:46;;;;;;;9.50;1.90;;;16.30;99.90;;;;;;4963147;28;20474;-85
2023/07/30 04:09:11;;;;;;;10.90;3.40;;;16.30;1.00;;;;;;4958105;28;20222;-85
2023/07/30 04:11:37;;;;;;;7.23;2.07;;;16.20;1.00;;;;;;4973809;28;20560;-85
2023/07/30 04:14:04;;;;;;;10.40;2.90;;;16.30;1.00;;;;;;4979519;28;20182;-85
2023/07/30 04:16:30;;;;;;;6.40;2.27;;;16.20;68.70;;;;;;4967769;28;20210;-85
2023/07/30 04:18:56;;;;;;;4.83;2.10;;;16.20;99.90;;;;;;4998114;28;21151;-84
2023/07/30 04:21:21;;;;;;;5.03;2.07;;;16.20;1.00;;;;;;4967000;28;20219;-85
2023/07/30 04:23:50;;;;;;;15.27;2.17;;;16.20;1.00;;;;;;4981758;28;20283;-85
2023/07/30 04:26:16;;;;;;;6.23;2.10;;;16.20;1.00;;;;;;4967405;28;20224;-86
2023/07/30 04:28:44;;;;;;;8.80;2.40;;;16.20;51.20;;;;;;4968924;28;20882;-85
2023/07/30 04:31:09;;;;;;;10.77;3.10;;;16.20;99.90;;;;;;4961380;28;20464;-85
2023/07/30 04:33:35;;;;;;;5.30;2.10;;;16.20;99.90;;;;;;4969067;28;20436;-85
2023/07/30 04:36:03;;;;;;;8.27;2.27;;;16.10;1.00;;;;;;4997883;28;20224;-85
2023/07/30 04:38:29;;;;;;;4.33;2.07;;;16.10;29.90;;;;;;4966127;28;20556;-85
2023/07/30 04:40:58;;;;;;;5.90;2.03;;;16.00;99.90;;;;;;4966993;28;20504;-84
2023/07/30 04:43:23;;;;;;;5.83;1.97;;;16.00;99.90;;;;;;4963259;28;20444;-85
2023/07/30 04:45:49;;;;;;;3.63;1.77;;;15.90;99.90;;;;;;4967487;28;20986;-85
2023/07/30 04:48:14;;;;;;;8.37;2.10;;;15.90;1.00;;;;;;4959253;28;20762;-85
2023/07/30 04:50:41;;;;;;;5.80;2.50;;;15.90;99.90;;;;;;4992777;28;20215;-85
2023/07/30 04:53:10;;;;;;;3.97;2.07;;;15.90;99.90;;;;;;4999285;28;20261;-85
2023/07/30 04:55:35;;;;;;;3.10;1.80;;;15.90;99.90;;;;;;4962164;28;20471;-85
2023/07/30 04:58:01;;;;;;;5.20;2.03;;;15.90;99.90;;;;;;4959703;28;20499;-85
2023/07/30 05:00:29;;;;;;;9.73;1.97;;;15.90;99.90;;;;;;4962926;28;20291;-85
2023/07/30 05:02:55;;;;;;;9.47;3.03;;;15.90;99.90;;;;;;4957916;28;20226;-85
2023/07/30 05:05:24;;;;;;;8.40;2.53;;;16.00;99.90;;;;;;4970942;28;20535;-85
2023/07/30 05:07:52;;;;;;;6.10;1.93;;;16.00;99.90;;;;;;4962834;28;20240;-84
2023/07/30 05:10:18;;;;;;;7.10;2.33;;;16.00;99.90;;;;;;4959251;28;20483;-84
2023/07/30 05:12:43;;;;;;;5.63;1.97;;;16.10;27.60;;;;;;4961743;28;20848;-85
2023/07/30 05:15:09;;;;;;;3.90;1.57;;;16.10;1.00;;;;;;4959227;28;20185;-84
2023/07/30 05:17:34;;;;;;;5.97;1.80;;;16.10;1.00;;;;;;4957091;28;20209;-85
2023/07/30 05:20:00;;;;;;;4.80;1.63;;;16.20;1.00;;;;;;4991105;28;20254;-85
2023/07/30 05:22:26;;;;;;;4.00;1.80;;;16.20;1.00;;;;;;4960347;28;20193;-84
2023/07/30 05:24:51;;;;;;;5.60;1.80;;;16.30;99.90;;;;;;4959712;28;20828;-85
2023/07/30 05:27:17;;;;;;;8.20;1.80;;;16.30;99.90;;;;;;4961966;28;20629;-84
2023/07/30 05:29:42;;;;;;;4.87;1.50;;;16.40;1.00;;;;;;4964220;28;20299;-85
2023/07/30 05:32:08;;;;;;;6.93;1.73;;;16.40;1.00;;;;;;4997337;28;20184;-85
2023/07/30 05:34:34;;;;;;;3.57;2.00;;;16.50;1.00;;;;;;4993618;28;20223;-85
2023/07/30 05:37:00;;;;;;;4.10;2.23;;;16.40;99.90;;;;;;4960721;28;20927;-85
2023/07/30 05:39:26;;;;;;;6.70;1.73;;;16.50;99.90;;;;;;4962479;28;20193;-85
2023/07/30 05:41:54;;;;;;;3.53;1.63;;;16.50;4.80;;;;;;4961123;28;20495;-85
2023/07/30 05:44:20;;;;;;;3.13;1.80;;;16.50;1.00;;;;;;4999947;28;20189;-85
2023/07/30 05:46:45;;;;;;;4.47;1.80;;;16.60;1.00;;;;;;4962102;28;20550;-84
2023/07/30 05:49:11;;;;;;;7.40;2.27;;;16.60;99.90;;;;;;4966839;28;20205;-85
2023/07/30 05:51:36;;;;;;;3.87;1.50;;;16.70;99.90;;;;;;4968526;28;20279;-85
2023/07/30 05:54:02;;;;;;;5.77;1.90;;;16.80;15.30;;;;;;4963539;28;20209;-85
2023/07/30 05:56:27;;;;;;;4.23;2.03;;;17.10;99.90;;;;;;4965043;28;20602;-85
2023/07/30 05:58:53;;;;;;;5.00;1.77;;;17.20;1.00;;;;;;4995377;28;20279;-84
2023/07/30 06:01:21;;;;;;;9.53;2.20;;;17.40;99.90;;;;;;4963923;28;20533;-85
2023/07/30 06:03:47;;;;;;;5.17;1.60;;;17.50;99.90;;;;;;4963010;28;20449;-85
2023/07/30 06:06:13;;;;;;;5.90;1.97;;;17.60;97.50;;;;;;4963324;28;20450;-85
2023/07/30 06:08:38;;;;;;;3.00;2.23;;;17.60;99.90;;;;;;4963467;28;20194;-85
2023/07/30 06:11:04;;;;;;;8.77;2.10;;;17.60;99.90;;;;;;4968130;28;20209;-85
2023/07/30 06:13:29;;;;;;;8.73;2.60;;;17.50;99.90;;;;;;4967607;28;20662;-85
2023/07/30 06:15:55;;;;;;;6.13;2.23;;;17.50;99.90;;;;;;4969650;28;20245;-84
2023/07/30 06:18:21;;;;;;;7.20;2.43;;;17.50;99.90;;;;;;4966369;28;20302;-84
2023/07/30 06:20:47;;;;;;;6.43;2.53;;;17.50;1.00;;;;;;4969416;28;20604;-85
2023/07/30 06:23:12;;;;;;;8.07;2.30;;;17.50;1.00;;;;;;4962948;28;20505;-85
2023/07/30 06:25:38;;;;;;;5.60;2.30;;;17.50;1.00;;;;;;4964883;28;20743;-85
2023/07/30 06:28:05;;;;;;;8.30;2.37;;;17.60;99.90;;;;;;4961714;28;20242;-85
2023/07/30 06:30:31;;;;;;;6.27;2.60;;;17.60;99.90;;;;;;4967286;28;20273;-85
2023/07/30 06:32:57;;;;;;;7.53;2.43;;;17.70;99.90;;;;;;4967062;28;20446;-84
2023/07/30 06:35:22;;;;;;;8.73;2.63;;;17.80;1.00;;;;;;4956967;28;20451;-85
2023/07/30 06:37:48;;;;;;;6.70;2.40;;;17.90;1.00;;;;;;4968646;28;20204;-86
2023/07/30 06:40:14;;;;;;;6.23;2.37;;;18.00;1.00;;;;;;4964200;28;20179;-86
2023/07/30 06:42:39;;;;;;;9.03;2.97;;;18.20;99.90;;;;;;4973548;28;20260;-85
2023/07/30 06:45:05;;;;;;;15.30;2.97;;;18.30;99.90;;;;;;4966646;28;20779;-85
2023/07/30 06:47:31;;;;;;;7.70;2.50;;;18.50;29.90;;;;;;4971979;28;20241;-86
2023/07/30 06:49:56;;;;;;;8.20;1.90;;;18.70;1.00;;;;;;4965031;28;20509;-86
2023/07/30 06:52:22;;;;;;;14.60;3.53;;;18.90;1.00;;;;;;4963656;28;20234;-86
2023/07/30 06:54:47;;;;;;;6.60;2.57;;;19.00;99.90;;;;;;4965636;28;20190;-85
2023/07/30 06:57:13;;;;;;;11.17;2.27;;;19.10;99.90;;;;;;4966155;28;20205;-85
2023/07/30 06:59:38;;;;;;;8.87;2.30;;;19.20;99.90;;;;;;4958748;28;20279;-85
2023/07/30 07:02:06;;;;;;;12.93;2.90;;;19.30;99.90;;;;;;4960329;28;20663;-85
2023/07/30 07:04:32;;;;;;;8.50;2.80;;;19.40;66.90;;;;;;4962029;28;20573;-85
2023/07/30 07:06:57;;;;;;;12.57;2.60;;;19.60;1.00;;;;;;4961767;28;20466;-84
2023/07/30 07:09:23;;;;;;;10.40;3.30;;;19.70;1.00;;;;;;4960384;28;20219;-84
2023/07/30 07:11:48;;;;;;;6.37;2.47;;;19.80;1.00;;;;;;4960269;28;20218;-85
2023/07/30 07:14:14;;;;;;;13.83;3.20;;;19.80;1.00;;;;;;4957652;28;20184;-85
2023/07/30 07:16:40;;;;;;;12.20;3.10;;;19.80;1.00;;;;;;4962564;28;20227;-85
2023/07/30 07:19:06;;;;;;;12.33;3.03;;;19.80;1.00;;;;;;4967967;28;20200;-84
2023/07/30 07:21:31;;;;;;;7.43;2.90;;;20.10;1.00;;;;;;4968595;28;20222;-85
2023/07/30 07:23:59;;;;;;;10.93;3.93;;;20.50;1.00;;;;;;4962958;28;20456;-85
2023/07/30 07:26:25;;;;;;;10.30;3.50;;;20.90;1.00;;;;;;4964420;28;20223;-84
2023/07/30 07:28:51;;;;;;;12.77;2.77;;;21.30;1.00;;;;;;4965883;28;20557;-85
2023/07/30 07:31:17;;;;;;;16.73;3.00;;;21.60;99.90;;;;;;4996728;28;20187;-85
2023/07/30 07:33:45;;;;;;;9.67;3.10;;;21.50;99.90;;;;;;4982100;28;20471;-85
2023/07/30 07:36:10;;;;;;;9.40;3.00;;;21.30;99.90;;;;;;4967732;28;20186;-85
2023/07/30 07:38:36;;;;;;;7.60;2.70;;;21.00;99.90;;;;;;4999721;28;21029;-85
2023/07/30 07:41:02;;;;;;;17.23;3.30;;;20.90;99.90;;;;;;4964274;28;20196;-84
2023/07/30 07:43:27;;;;;;;7.57;3.17;;;20.80;99.90;;;;;;4973929;28;20196;-85
2023/07/30 07:45:53;;;;;;;10.73;2.77;;;20.80;99.90;;;;;;4967293;28;20621;-85
2023/07/30 07:48:19;;;;;;;9.57;2.93;;;20.60;1.00;;;;;;4965607;28;20208;-85
2023/07/30 07:50:50;;;;;;;8.13;2.87;;;20.40;1.00;;;;;;4976001;28;20229;-85
2023/07/30 07:53:15;;;;;;;10.33;3.20;;;20.20;1.00;;;;;;5001473;28;20250;-86
2023/07/30 07:55:41;;;;;;;7.70;3.20;;;20.00;1.00;;;;;;4964972;28;20448;-86
2023/07/30 07:58:06;;;;;;;12.67;3.50;;;19.90;1.00;;;;;;5000553;28;20258;-85
2023/07/30 08:00:34;;;;;;;12.43;3.50;;;20.00;1.00;;;;;;4972010;28;20194;-86
2023/07/30 08:03:00;;;;;;;7.27;3.10;;;20.10;1.00;;;;;;4971890;28;20196;-86
2023/07/30 08:05:35;;;;;;;11.80;3.60;;;20.10;1.00;;;;;;4966939;28;20452;-85
2023/07/30 08:08:01;;;;;;;12.13;4.00;;;20.10;1.00;;;;;;5001562;28;20216;-86
2023/07/30 08:10:29;;;;;;;12.70;3.97;;;20.10;1.00;;;;;;5001036;28;20581;-85
2023/07/30 08:12:55;;;;;;;17.53;4.03;;;20.30;1.00;;;;;;4967079;28;20200;-86
2023/07/30 08:15:20;;;;;;;11.17;3.30;;;20.70;1.00;;;;;;4965621;28;20807;-86
2023/07/30 08:17:46;;;;;;;6.43;2.30;;;21.20;99.90;;;;;;4966916;28;20287;-86
2023/07/30 08:20:14;;;;;;;7.30;2.73;;;21.40;99.90;;;;;;4994457;28;20680;-85
2023/07/30 08:22:42;;;;;;;14.17;3.50;;;21.50;99.90;;;;;;4971903;28;20449;-85
2023/07/30 08:25:08;;;;;;;11.67;3.50;;;21.60;99.90;;;;;;4968990;28;21115;-85
2023/07/30 08:27:37;;;;;;;13.03;2.97;;;21.70;99.90;;;;;;4996839;28;20478;-85
2023/07/30 08:30:02;;;;;;;15.47;4.13;;;21.90;99.90;;;;;;4970293;28;20211;-86
2023/07/30 08:32:33;;;;;;;10.67;3.13;;;22.00;99.90;;;;;;4965899;28;20570;-86
2023/07/30 08:34:58;;;;;;;14.70;4.10;;;22.00;99.90;;;;;;4965244;28;20715;-86
2023/07/30 08:37:24;;;;;;;11.13;3.17;;;21.90;99.90;;;;;;4977705;28;20450;-86
2023/07/30 08:39:50;;;;;;;12.40;2.37;;;21.90;99.90;;;;;;4971878;28;20623;-86
2023/07/30 08:42:16;;;;;;;10.23;3.07;;;21.90;99.90;;;;;;4969218;28;20198;-85
2023/07/30 08:44:41;;;;;;;14.87;3.07;;;21.80;99.90;;;;;;4969337;28;20195;-86
2023/07/30 08:47:07;;;;;;;13.00;3.33;;;21.60;99.90;;;;;;4968441;28;20459;-86
2023/07/30 08:49:35;;;;;;;12.07;2.77;;;21.50;99.90;;;;;;4960646;28;20594;-86
2023/07/30 08:52:07;;;;;;;12.73;3.13;;;21.40;99.90;;;;;;4968466;28;20188;-87
2023/07/30 08:54:37;;;;;;;11.83;2.63;;;21.30;99.90;;;;;;5003040;28;20447;-85
2023/07/30 08:57:06;;;;;;;8.77;2.77;;;21.50;99.90;;;;;;4964320;28;20463;-86
2023/07/30 08:59:39;;;;;;;9.53;2.70;;;21.90;99.90;;;;;;4989708;28;20555;-85
2023/07/30 09:02:13;;;;;;;12.90;3.13;;;22.30;99.90;;;;;;4965178;28;20467;-86
2023/07/30 09:04:40;;;;;;;9.80;3.03;;;23.00;99.90;;;;;;4959483;28;20445;-86
2023/07/30 09:07:11;;;;;;;8.47;2.47;;;23.80;99.90;;;;;;4967004;28;20489;-86
2023/07/30 09:09:44;;;;;;;7.57;3.03;;;25.20;99.90;;;;;;4966142;28;20502;-86
2023/07/30 09:12:18;;;;;;;10.50;3.23;;;25.80;99.90;;;;;;5002815;28;20976;-86
2023/07/30 09:14:50;;;;;;;16.50;3.13;;;25.80;99.90;;;;;;4998443;28;20437;-87
2023/07/30 09:17:18;;;;;;;10.60;2.93;;;25.50;99.90;;;;;;4966286;28;20530;-86
2023/07/30 09:19:44;;;;;;;7.97;2.60;;;25.30;99.90;;;;;;4967329;28;20451;-87
2023/07/30 09:22:10;;;;;;;13.57;3.40;;;25.20;99.90;;;;;;4999351;28;20445;-87
2023/07/30 09:24:36;;;;;;;7.60;2.70;;;25.40;99.90;;;;;;4963568;28;20439;-86
2023/07/30 09:27:03;;;;;;;6.27;2.20;;;25.50;99.90;;;;;;4999958;28;20299;-87
2023/07/30 09:29:34;;;;;;;9.57;2.17;;;28.40;99.90;;;;;;5002517;28;20463;-88
2023/07/30 09:31:59;;;;;;;7.83;2.60;;;29.70;99.90;;;;;;4963638;28;20450;-87
2023/07/30 09:34:25;;;;;;;6.27;1.90;;;32.60;1.00;;;;;;4980008;28;20443;-87
2023/07/30 09:36:56;;;;;;;7.57;2.20;;;34.40;1.00;;;;;;4968268;28;20204;-87
2023/07/30 09:39:29;;;;;;;7.07;2.17;;;34.90;1.00;;;;;;4956064;28;20549;-88
2023/07/30 09:42:10;;;;;;;8.57;2.63;;;37.20;99.90;;;;;;4963579;28;20548;-85
2023/07/30 09:45:07;;;;;;;;;;;;;;;;;;;;;
2023/07/30 09:48:20;;;;;;;5.30;1.63;;;38.80;1.00;;;;;;5013974;23;20540;-86
2023/07/30 09:50:45;;;;;;;5.17;1.70;;;39.40;1.00;;;;;;4998371;28;20478;-85
2023/07/30 09:53:14;;;;;;;4.73;1.90;;;36.80;99.90;;;;;;5006501;28;20847;-85
2023/07/30 09:55:40;;;;;;;5.10;2.00;;;34.40;99.90;;;;;;5004188;28;20198;-86
2023/07/30 09:58:07;;;;;;;7.83;2.07;;;32.30;99.90;;;;;;5010930;28;20449;-86
2023/07/30 10:00:33;;;;;;;7.60;2.00;;;30.40;99.90;;;;;;5004455;28;20234;-86
2023/07/30 10:03:06;;;;;;;6.63;1.80;;;29.50;99.90;;;;;;4994410;28;20438;-86
2023/07/30 10:05:39;;;;;;;11.03;2.40;;;29.60;99.90;;;;;;5002274;28;20539;-86
2023/07/30 10:08:39;;;;;;;6.47;2.07;;;32.30;99.90;;;;;;5009097;28;20461;-87
2023/07/30 10:11:11;;;;;;;5.37;1.80;;;31.20;99.90;;;;;;4996786;28;20486;-87
2023/07/30 10:13:42;;;;;;;3.93;1.87;;;33.20;99.90;;;;;;5006750;28;20454;-86
2023/07/30 10:16:11;;;;;;;6.83;1.57;;;35.50;99.90;;;;;;5007087;28;20438;-86
2023/07/30 10:19:07;;;;;;;4.97;2.00;;;35.70;99.90;;;;;;5006050;28;20807;-86
2023/07/30 10:22:03;;;;;;;7.70;2.07;;;35.90;99.90;;;;;;5016896;28;20543;-87
2023/07/30 10:25:10;;;;;;;5.07;1.57;;;37.70;99.90;;;;;;5000188;28;20453;-86
2023/07/30 10:27:49;;;;;;;4.20;1.40;;;37.80;99.90;;;;;;4998607;28;20473;-86
2023/07/30 10:30:16;;;;;;;5.07;1.70;;;37.30;99.90;;;;;;5021163;28;20525;-86
2023/07/30 10:33:05;;;;;;;3.67;1.50;;;35.80;99.90;;;;;;4996296;28;20446;-86
2023/07/30 10:41:49;;;;;;;;;;;;;;;;;;;;;
2023/07/30 10:44:32;;;;;;;5.60;1.77;;;30.40;99.90;;;;;;4948025;28;20437;-88
2023/07/30 10:47:31;;;;;;;8.30;1.50;;;29.00;99.90;;;;;;4967122;28;20476;-88
2023/07/30 10:50:14;;;;;;;5.10;2.23;;;28.10;99.90;;;;;;4945837;28;20480;-86
2023/07/30 10:53:00;;;;;;;6.97;1.77;;;27.20;99.90;;;;;;4956981;28;20444;-84
2023/07/30 10:55:33;;;;;;;7.40;1.97;;;26.60;99.90;;;;;;4951276;28;20522;-86
2023/07/30 10:57:59;;;;;;;7.33;2.50;;;26.70;99.90;;;;;;4958664;28;20540;-84
2023/07/30 11:00:28;;;;;;;9.80;2.37;;;28.10;99.90;;;;;;4946404;28;20833;-86
2023/07/30 11:02:57;;;;;;;5.47;1.77;;;28.20;99.90;;;;;;4950059;28;20459;-86
2023/07/30 11:05:31;;;;;;;6.07;2.13;;;27.70;99.90;;;;;;4967201;28;20460;-84
2023/07/30 11:08:19;;;;;;;6.63;1.87;;;26.90;99.90;;;;;;4949672;28;20539;-86
2023/07/30 11:10:50;;;;;;;6.17;1.80;;;26.20;99.90;;;;;;4953877;28;20479;-86
2023/07/30 11:13:37;;;;;;;6.17;1.90;;;25.60;99.90;;;;;;4954836;28;20452;-85
2023/07/30 11:16:19;;;;;;;5.63;2.07;;;25.30;99.90;;;;;;4950698;28;20459;-84
2023/07/30 11:18:56;;;;;;;8.40;2.10;;;25.50;99.90;;;;;;4954150;28;20503;-85
2023/07/30 11:21:25;;;;;;;8.00;1.80;;;25.70;99.90;;;;;;4955979;28;20451;-87
2023/07/30 11:27:20;;;;;;;5.00;2.00;;;25.50;99.90;;;;;;4986517;23;20497;-84
2023/07/30 11:30:55;;;;;;;6.23;1.63;;;25.30;99.90;;;;;;4992269;28;20467;-86
2023/07/30 11:33:31;;;;;;;12.93;2.10;;;24.70;99.90;;;;;;4983385;28;20524;-87
2023/07/30 11:36:38;;;;;;;6.60;2.10;;;24.20;99.90;;;;;;4988537;28;20481;-86
2023/07/30 11:39:23;;;;;;;5.07;1.90;;;23.70;99.90;;;;;;4990998;28;21007;-85
2023/07/30 11:42:06;;;;;;;6.33;1.43;;;23.30;99.90;;;;;;4969525;28;20495;-86
2023/07/30 11:44:41;;;;;;;6.63;1.83;;;23.10;99.90;;;;;;4973623;28;20507;-86
2023/07/30 11:47:09;;;;;;;10.50;2.30;;;22.70;1.00;;;;;;4979138;28;20471;-86
2023/07/30 11:49:34;;;;;;;4.17;1.27;;;22.60;1.00;;;;;;4979791;28;20459;-86
2023/07/30 11:53:04;;;;;;;;;;;;;;;;;;;;;
2023/07/30 11:55:40;;;;;;;4.90;1.20;;;23.50;1.00;;;;;;4969046;28;20669;-87
2023/07/30 11:58:07;;;;;;;4.65;1.77;;;24.30;1.00;;;;;;4978250;28;20502;-85
2023/07/30 12:00:37;;;;;;;3.27;1.20;;;24.80;99.90;;;;;;4975500;28;20193;-84
2023/07/30 12:03:04;;;;;;;4.00;1.80;;;25.40;99.90;;;;;;4972708;28;20452;-84
2023/07/30 12:05:34;;;;;;;6.97;1.47;;;25.60;99.90;;;;;;4968524;28;20452;-85
2023/07/30 12:08:02;;;;;;;4.60;1.90;;;25.60;99.90;;;;;;4974300;28;20460;-85
2023/07/30 12:10:28;;;;;;;6.60;1.30;;;25.90;99.90;;;;;;4972481;28;20533;-85
2023/07/30 12:12:53;;;;;;;7.03;1.90;;;26.20;99.90;;;;;;4966997;28;20768;-85
2023/07/30 12:15:19;;;;;;;3.57;1.67;;;26.40;99.90;;;;;;4974612;28;20193;-85
2023/07/30 12:17:45;;;;;;;5.30;1.43;;;26.60;99.90;;;;;;4977174;28;20204;-85
2023/07/30 12:20:11;;;;;;;5.50;1.90;;;27.00;99.90;;;;;;4980618;28;20188;-85
2023/07/30 12:22:38;;;;;;;5.40;1.60;;;26.70;99.90;;;;;;4977968;28;20207;-85
2023/07/30 12:25:04;;;;;;;5.13;1.90;;;26.30;99.90;;;;;;4978149;28;20536;-84
2023/07/30 12:27:30;;;;;;;7.80;2.80;;;25.90;99.90;;;;;;4978163;28;20542;-84
2023/07/30 12:29:55;;;;;;;5.30;2.00;;;25.30;99.90;;;;;;4977750;28;20562;-85
2023/07/30 12:32:21;;;;;;;5.20;1.90;;;24.80;99.90;;;;;;4979960;28;20176;-85
2023/07/30 12:34:46;;;;;;;4.77;1.80;;;24.50;99.90;;;;;;4981713;28;20202;-85
2023/07/30 12:37:12;;;;;;;5.80;1.60;;;24.60;99.90;;;;;;4975707;28;20200;-85
2023/07/30 12:39:37;;;;;;;4.03;1.63;;;25.00;99.90;;;;;;4981079;28;20701;-85
2023/07/30 12:42:03;;;;;;;4.23;1.53;;;25.60;99.90;;;;;;4981249;28;20191;-85
2023/07/30 12:44:29;;;;;;;5.43;1.80;;;26.30;99.90;;;;;;4980935;28;20200;-86
2023/07/30 12:46:54;;;;;;;7.53;1.70;;;27.10;99.90;;;;;;4972493;28;20286;-84
2023/07/30 12:49:20;;;;;;;11.97;2.00;;;27.90;99.90;;;;;;4978067;28;20219;-86
2023/07/30 12:51:45;;;;;;;6.70;2.10;;;28.80;99.90;;;;;;4977452;28;20572;-86
2023/07/30 12:54:11;;;;;;;4.93;1.70;;;29.00;99.90;;;;;;4976384;28;20172;-85
2023/07/30 12:56:36;;;;;;;7.67;2.20;;;29.20;99.90;;;;;;4973728;28;20211;-85
2023/07/30 12:59:02;;;;;;;6.97;2.00;;;29.30;99.90;;;;;;4972578;28;20281;-85
2023/07/30 13:01:28;;;;;;;6.07;1.53;;;29.20;99.90;;;;;;4974018;28;20188;-86
2023/07/30 13:03:54;;;;;;;6.10;2.10;;;29.20;99.90;;;;;;4974814;28;20338;-85
2023/07/30 13:06:21;;;;;;;5.07;1.63;;;29.00;99.90;;;;;;4973503;28;20211;-85
2023/07/30 13:08:46;;;;;;;5.00;1.67;;;29.30;99.90;;;;;;4974254;28;20458;-85